Dresden, New York
Current Conditions -  °F | °C
As of 4:53 AM on Wednesday 22 Oct 2014 (Local Time) from KPEO Reporting Station
Haze Haze  
Wind Chill: 43°   Ceiling: 200
Heat Index: 46°   Visibility: 4mi
Dew Point: 45°   Wind: 6mph
Humidity: 96%   Direction: 340°NNW
Pressure: 30.06"   Gusts: NA
Location:  42.68°N, 76.96°W
Report Text: KPEO 220853Z AUTO 34005KT 4SM BR OVC002 08/07 A3006 RMK AO2 SLP184 60000 T00780072 53009
Loading
Personal Weather Stations






























Interactive Weather Map
Tropical Storm Tracking
New forecast layout! Learn more

10-Day Weather Forecast

Advertisements
Track Severe Weather on mobile